Charles Town, WV (25414)

01:29 PM EDT die 30o March, anno 2015 (GMT -0400)
Tuscawilla Hills | | Change Station
CLOSE
Current Station
Personal Weather Stations
Location: Charles Town, WV
Elevation: 572 ft
Nearby Weather Stations

Elev 572 ft 39.29 °N, 77.90 °W | Updated 12 seconds ago

Partialiter Nubila
Partialiter Nubila
55.8 °F
Feels Like 55.8 °F
N
2.0
Ventus Variabilis Ventus from Magis Auster quam Zephyrus
Gusts 6.0 mph

Hodie
High -- | Low -- °F
--% Chance of Precip.
Yesterday
High -- | Low -- °F
Precip. -- in
6:59 AM 7:33 PM
Waxing Gibbous, 81% visible
Pressio 29.89 in
Visibilitas 10.0 milia passuum
Clouds Serena
Frigus in quo Ros apparet 31 °F
Umor 39%
Rainfall 0.00 in
Snow Depth Not available.
UV 8 out of 12
Pollen 8.10 out of 12
Air Quality Not available.
Flu Activity Not available.
METAR KMRB 301653Z 31015G26KT 10SM CLR 14/M03 A2989 RMK AO2 PK WND 28026/1644 SLP122 T01391033

More Conditions Fewer Conditions

Pressio 29.89 in
Visibilitas 10.0 milia passuum
Clouds Serena
Frigus in quo Ros apparet 31 °F
Umor 39%
Rainfall 0.00 in
Snow Depth Not available.
UV 8 out of 12
Pollen 8.10 out of 12
Air Quality Not available.
Flu Activity Not available.
METAR KMRB 301653Z 31015G26KT 10SM CLR 14/M03 A2989 RMK AO2 PK WND 28026/1644 SLP122 T01391033

More Conditions Fewer Conditions

10-Day Weather Forecast

Almanac

Astronomy

Mar. 30, 2015 Rise Set
Actual Time
Civil Twilight
Nautical Twilight
Astronomical Twilight
Moon
Length Of Visible Light
Length of Day
Tomorrow will be .
, % of the Moon is Illuminated

Today's Extremes

State Highs State Lows

Community

WunderPhotos

Upload Photos

1,809,542 photos uploaded!

WunderBlogs® & News

Nearby

Air Quality

  Air Quality AQ Index Pollutant
Not available.

Snow Depth

Station Depth Elevation

Earthquake Activity

City Distance Mag. Time & Date
Minimum magnitude displayed is 2.5.

Coastal Water Temperatures

Locus Calor

Stations

Nearby Weather Stations

Station Location Temp Frigus Venti Frigus in quo Ros apparet Umor Ventus Precip. Elev Renovata Type